createdAt,value
2019-01-18T00:00:53.556Z,2.53
2019-01-18T00:06:09.029Z,2.40
2019-01-18T00:11:24.916Z,2.60
2019-01-18T00:16:40.429Z,2.07
2019-01-18T00:21:56.133Z,2.23
2019-01-18T00:27:11.677Z,2.20
2019-01-18T00:32:27.201Z,2.73
2019-01-18T00:37:42.593Z,2.70
2019-01-18T00:42:57.948Z,2.67
2019-01-18T00:48:13.601Z,3.43
2019-01-18T00:53:29.430Z,4.03
2019-01-18T00:58:44.865Z,3.37
2019-01-18T01:04:00.370Z,4.13
2019-01-18T01:09:16.385Z,3.63
2019-01-18T01:14:33.057Z,3.53
2019-01-18T01:19:49.111Z,3.43
2019-01-18T01:25:04.786Z,3.10
2019-01-18T01:30:20.101Z,3.53
2019-01-18T01:35:36.052Z,2.70
2019-01-18T01:40:51.882Z,2.93
2019-01-18T01:46:07.982Z,2.83
2019-01-18T01:51:23.919Z,2.63
2019-01-18T01:56:39.929Z,2.87
2019-01-18T02:01:55.564Z,2.43
2019-01-18T02:07:11.346Z,2.40
2019-01-18T02:12:26.618Z,2.80
2019-01-18T02:17:42.249Z,2.10
2019-01-18T02:22:57.929Z,2.10
2019-01-18T02:28:13.702Z,2.80
2019-01-18T02:33:29.740Z,2.73
2019-01-18T02:38:45.317Z,2.00
2019-01-18T02:44:01.124Z,1.97
2019-01-18T02:49:16.929Z,1.83
2019-01-18T02:54:33.225Z,1.80
2019-01-18T02:59:48.625Z,2.23
2019-01-18T03:05:04.715Z,1.63
2019-01-18T03:10:20.141Z,1.57
2019-01-18T03:15:35.717Z,1.80
2019-01-18T03:20:51.415Z,1.83
2019-01-18T03:26:09.929Z,1.67
2019-01-18T03:31:25.745Z,1.93
2019-01-18T03:36:41.815Z,2.00
2019-01-18T03:41:57.462Z,1.70
2019-01-18T03:47:12.990Z,1.77
2019-01-18T03:52:29.208Z,1.80
2019-01-18T03:57:44.844Z,1.53
2019-01-18T04:03:00.425Z,1.90
2019-01-18T04:08:16.110Z,1.77
2019-01-18T04:13:31.940Z,1.53
2019-01-18T04:18:47.337Z,1.60
2019-01-18T04:24:03.365Z,1.80
2019-01-18T04:29:18.998Z,1.83
2019-01-18T04:34:34.417Z,1.63
2019-01-18T04:39:50.556Z,1.80
2019-01-18T04:45:06.165Z,2.17
2019-01-18T04:50:22.772Z,2.10
2019-01-18T04:55:39.122Z,2.40
2019-01-18T05:00:54.721Z,1.87
2019-01-18T05:06:10.691Z,2.40
2019-01-18T05:11:26.120Z,2.57
2019-01-18T05:16:41.710Z,2.40
2019-01-18T05:21:57.528Z,2.93
2019-01-18T05:32:34.250Z,2.90
2019-01-18T05:37:49.489Z,2.97
2019-01-18T05:43:05.097Z,2.80
2019-01-18T05:48:20.569Z,2.90
2019-01-18T05:53:36.669Z,3.70
2019-01-18T05:58:52.369Z,3.33
2019-01-18T06:04:07.937Z,3.63
2019-01-18T06:09:24.107Z,3.70
2019-01-18T06:14:39.829Z,4.13
2019-01-18T06:19:55.433Z,4.10
2019-01-18T06:25:10.767Z,4.10
2019-01-18T06:30:26.046Z,5.00
2019-01-18T06:35:41.529Z,4.60
2019-01-18T06:40:57.930Z,5.13
2019-01-18T06:46:13.229Z,5.07
2019-01-18T06:51:28.798Z,5.30
2019-01-18T06:56:44.465Z,5.87
2019-01-18T07:02:00.229Z,6.07
2019-01-18T07:07:15.632Z,5.77
2019-01-18T07:12:31.946Z,5.47
2019-01-18T07:17:47.671Z,5.60
2019-01-18T07:23:03.889Z,5.17
2019-01-18T07:28:20.037Z,5.00
2019-01-18T07:33:38.765Z,5.07
2019-01-18T07:38:42.184Z,6.07
2019-01-18T07:44:04.961Z,6.47
2019-01-18T07:49:27.730Z,6.37
2019-01-18T07:54:53.192Z,6.57
2019-01-18T08:00:36.917Z,7.13
2019-01-18T08:05:59.941Z,7.27
2019-01-18T08:11:22.946Z,8.13
2019-01-18T08:16:45.703Z,8.70
2019-01-18T08:22:08.465Z,8.67
2019-01-18T08:27:31.489Z,8.83
2019-01-18T08:32:54.256Z,10.13
2019-01-18T08:38:10.213Z,9.00
2019-01-18T08:43:26.437Z,9.57
2019-01-18T08:48:41.760Z,8.90
2019-01-18T08:53:57.270Z,9.73
2019-01-18T08:59:12.698Z,10.30
2019-01-18T09:04:28.629Z,10.97
2019-01-18T09:09:44.813Z,10.53
2019-01-18T09:15:00.306Z,11.77
2019-01-18T09:20:16.502Z,10.63
2019-01-18T09:25:31.687Z,10.70
2019-01-18T09:30:47.207Z,10.40
2019-01-18T09:36:03.157Z,12.50
2019-01-18T09:41:18.386Z,11.30
2019-01-18T09:46:33.773Z,10.80
2019-01-18T09:51:49.749Z,11.70
2019-01-18T09:57:05.504Z,10.83
2019-01-18T10:02:21.309Z,10.60
2019-01-18T10:07:37.078Z,10.20
2019-01-18T10:12:53.017Z,10.63
2019-01-18T10:18:09.277Z,8.43
2019-01-18T10:23:25.215Z,8.77
2019-01-18T10:28:40.978Z,8.60
2019-01-18T10:33:56.586Z,8.27
2019-01-18T10:39:12.938Z,8.43
2019-01-18T10:44:28.169Z,7.67
2019-01-18T10:49:43.930Z,6.03
2019-01-18T10:54:59.688Z,6.77
2019-01-18T11:00:14.878Z,6.00
2019-01-18T11:05:30.257Z,6.23
2019-01-18T11:10:45.813Z,6.23
2019-01-18T11:16:01.331Z,6.43
2019-01-18T11:21:17.062Z,7.03
2019-01-18T11:26:32.794Z,4.60
2019-01-18T11:31:48.885Z,3.47
2019-01-18T11:37:05.317Z,4.20
2019-01-18T11:42:20.749Z,3.07
2019-01-18T11:47:36.410Z,3.13
2019-01-18T11:52:51.906Z,3.13
2019-01-18T11:58:07.520Z,2.63
2019-01-18T12:03:23.289Z,2.37
2019-01-18T12:08:41.880Z,2.80
2019-01-18T12:13:56.493Z,2.40
2019-01-18T12:19:12.257Z,2.53
2019-01-18T12:24:28.034Z,2.33
2019-01-18T12:29:43.378Z,1.37
2019-01-18T12:34:59.145Z,1.93
2019-01-18T12:40:15.142Z,2.77
2019-01-18T12:45:30.601Z,0.80
2019-01-18T12:50:45.905Z,1.37
2019-01-18T12:56:01.609Z,1.53
2019-01-18T13:01:17.669Z,0.90
2019-01-18T13:06:33.233Z,0.73
2019-01-18T13:11:49.258Z,1.17
2019-01-18T13:17:04.839Z,0.63
2019-01-18T13:22:20.432Z,0.80
2019-01-18T13:27:35.877Z,0.80
2019-01-18T13:32:51.378Z,1.13
2019-01-18T13:38:07.434Z,0.83
2019-01-18T13:43:23.186Z,0.90
2019-01-18T13:48:39.238Z,1.00
2019-01-18T13:53:55.175Z,1.90
2019-01-18T13:59:11.473Z,2.33
2019-01-18T14:04:27.738Z,2.13
2019-01-18T14:09:43.105Z,1.80
2019-01-18T14:14:58.789Z,2.27
2019-01-18T14:20:14.305Z,1.93
2019-01-18T14:25:29.574Z,2.20
2019-01-18T14:30:45.316Z,1.40
2019-01-18T14:36:01.234Z,2.00
2019-01-18T14:41:16.585Z,2.07
2019-01-18T14:46:33.145Z,1.40
2019-01-18T14:51:48.842Z,1.27
2019-01-18T14:57:04.223Z,2.37
2019-01-18T15:02:19.752Z,1.40
2019-01-18T15:07:37.109Z,1.80
2019-01-18T15:12:52.748Z,1.43
2019-01-18T15:18:08.338Z,1.70
2019-01-18T15:23:24.449Z,1.50
2019-01-18T15:28:40.574Z,1.20
2019-01-18T15:33:44.036Z,1.60
2019-01-18T15:38:59.609Z,1.90
2019-01-18T15:44:15.755Z,1.87
2019-01-18T15:49:31.845Z,1.90
2019-01-18T15:54:47.400Z,1.93
2019-01-18T16:00:03.081Z,1.87
2019-01-18T16:05:18.857Z,2.60
2019-01-18T16:10:34.157Z,2.50
2019-01-18T16:15:49.382Z,3.70
2019-01-18T16:21:04.938Z,3.83
2019-01-18T16:26:20.493Z,4.47
2019-01-18T16:31:36.041Z,6.53
2019-01-18T16:36:51.548Z,6.37
2019-01-18T16:42:07.433Z,6.10
2019-01-18T16:47:23.079Z,6.37
2019-01-18T16:52:38.786Z,7.33
2019-01-18T16:57:54.141Z,4.87
2019-01-18T17:03:10.218Z,4.60
2019-01-18T17:08:26.125Z,5.20
2019-01-18T17:13:41.657Z,5.60
2019-01-18T17:18:57.871Z,8.80
2019-01-18T17:24:13.985Z,9.10
2019-01-18T17:29:29.670Z,5.97
2019-01-18T17:34:45.021Z,5.40
2019-01-18T17:40:00.454Z,4.90
2019-01-18T17:45:15.950Z,4.60
2019-01-18T17:50:31.616Z,7.37
2019-01-18T17:55:46.864Z,5.93
2019-01-18T18:01:02.641Z,6.20
2019-01-18T18:06:18.941Z,7.53
2019-01-18T18:11:35.210Z,7.20
2019-01-18T18:16:50.523Z,6.00
2019-01-18T18:22:05.972Z,15.00
2019-01-18T18:27:21.429Z,7.40
2019-01-18T18:32:37.238Z,7.20
2019-01-18T18:37:52.629Z,7.80
2019-01-18T18:43:08.125Z,7.73
2019-01-18T18:48:23.979Z,7.97
2019-01-18T18:53:41.156Z,9.40
2019-01-18T18:58:56.873Z,6.87
2019-01-18T19:04:12.486Z,6.70
2019-01-18T19:09:28.482Z,6.43
2019-01-18T19:14:44.762Z,7.50
2019-01-18T19:25:41.173Z,7.57
2019-01-18T19:30:57.023Z,7.37
2019-01-18T19:36:16.514Z,7.03
2019-01-18T19:41:32.213Z,7.87
2019-01-18T19:46:51.567Z,7.33
2019-01-18T19:52:07.712Z,7.70
2019-01-18T20:02:48.474Z,8.50
2019-01-18T20:08:04.089Z,7.43
2019-01-18T20:13:24.692Z,8.47
2019-01-18T20:18:40.702Z,8.60
2019-01-18T20:23:55.981Z,8.40
2019-01-18T20:29:11.957Z,8.97
2019-01-18T20:34:30.867Z,9.37
2019-01-18T20:45:17.989Z,9.23
2019-01-18T20:50:33.703Z,8.57
2019-01-18T20:55:49.219Z,9.63
2019-01-18T21:01:04.725Z,9.70
2019-01-18T21:06:20.370Z,9.63
2019-01-18T21:11:36.206Z,9.60
2019-01-18T21:16:51.694Z,9.63
2019-01-18T21:22:07.341Z,8.90
2019-01-18T21:27:23.710Z,8.20
2019-01-18T21:32:39.400Z,8.23
2019-01-18T21:43:30.926Z,7.43
2019-01-18T21:48:53.604Z,7.77
2019-01-18T21:54:06.509Z,7.80
2019-01-18T21:59:22.556Z,8.13
2019-01-18T22:04:40.653Z,9.10
2019-01-18T22:09:55.673Z,8.30
2019-01-18T22:20:32.570Z,7.90
2019-01-18T22:25:48.224Z,7.97
2019-01-18T22:36:24.853Z,8.50
2019-01-18T22:41:41.236Z,8.27
2019-01-18T22:46:57.067Z,8.27
2019-01-18T22:52:13.304Z,8.87
2019-01-18T22:57:28.753Z,8.47
2019-01-18T23:02:48.134Z,8.60
2019-01-18T23:08:04.185Z,8.17
2019-01-18T23:13:19.671Z,7.90
2019-01-18T23:18:38.595Z,8.30
2019-01-18T23:23:54.725Z,7.57
2019-01-18T23:29:10.161Z,7.73
2019-01-18T23:34:33.650Z,7.67
2019-01-18T23:39:47.570Z,8.57
2019-01-18T23:45:03.176Z,7.80
2019-01-18T23:50:18.690Z,8.40
2019-01-18T23:55:35.043Z,8.60
